AZU4991 SBCX-SBKP
Flight info
| Callsign | AZU4991 |
|---|---|
| Flight time | 1h 11m |
| Altitude | 33000 |
| Route | PENSO UZ132 EDRAT |
| Aircraft | A320/M-SDE3FGHIRWY/LB1 |
Departure
| Time | 2026-05-08 02:58 |
|---|---|
| Airport | Hugo Cantergiani Regional Airport (SBCX) |
Arrival
| Time | 2026-05-08 04:09 |
|---|---|
| Airport | Viracopos International Airport (SBKP) |
| Time | Latitude | Longitude | Altitude | Speed | Heading |
|---|---|---|---|---|---|
| 2026-05-08 02:40 | -29.19543 | -51.18720 | 2451 ft | 0 kts | 46° |
| 2026-05-08 02:50 | -29.19553 | -51.18732 | 2456 ft | 4 kts | 55° |
| 2026-05-08 02:50 | -29.19563 | -51.18758 | 2453 ft | 4 kts | 98° |
| 2026-05-08 02:50 | -29.19557 | -51.18774 | 2454 ft | 4 kts | 193° |
| 2026-05-08 02:50 | -29.19549 | -51.18770 | 2454 ft | 1 kts | 213° |
| 2026-05-08 02:54 | -29.19584 | -51.18800 | 2454 ft | 9 kts | 222° |
| 2026-05-08 02:54 | -29.19594 | -51.18811 | 2454 ft | 1 kts | 223° |
| 2026-05-08 02:54 | -29.19620 | -51.18837 | 2453 ft | 10 kts | 212° |
| 2026-05-08 02:55 | -29.19686 | -51.18787 | 2459 ft | 16 kts | 140° |
| 2026-05-08 02:55 | -29.19860 | -51.18601 | 2459 ft | 20 kts | 136° |
| 2026-05-08 02:55 | -29.19970 | -51.18481 | 2458 ft | 24 kts | 136° |
| 2026-05-08 02:56 | -29.20101 | -51.18339 | 2453 ft | 27 kts | 136° |
| 2026-05-08 02:56 | -29.20227 | -51.18195 | 2446 ft | 25 kts | 135° |
| 2026-05-08 02:56 | -29.20296 | -51.18081 | 2446 ft | 6 kts | 86° |
| 2026-05-08 02:56 | -29.20308 | -51.18080 | 2449 ft | 3 kts | 207° |
| 2026-05-08 02:57 | -29.20294 | -51.18122 | 2445 ft | 7 kts | 316° |
| 2026-05-08 02:57 | -29.20260 | -51.18156 | 2446 ft | 32 kts | 317° |
| 2026-05-08 02:57 | -29.19896 | -51.18561 | 2456 ft | 111 kts | 315° |
| 2026-05-08 02:57 | -29.19242 | -51.19323 | 2729 ft | 148 kts | 320° |
| 2026-05-08 02:58 | -29.18520 | -51.20167 | 3564 ft | 146 kts | 323° |
| 2026-05-08 02:58 | -29.18034 | -51.20701 | 4045 ft | 147 kts | 322° |
| 2026-05-08 02:58 | -29.17244 | -51.21554 | 4305 ft | 167 kts | 321° |
| 2026-05-08 02:58 | -29.16331 | -51.22536 | 4646 ft | 193 kts | 321° |
| 2026-05-08 02:59 | -29.15296 | -51.23659 | 5119 ft | 215 kts | 320° |
| 2026-05-08 02:59 | -29.14192 | -51.24869 | 5891 ft | 222 kts | 319° |
| 2026-05-08 02:59 | -29.13024 | -51.26038 | 6762 ft | 224 kts | 331° |
| 2026-05-08 02:59 | -29.11479 | -51.26376 | 7530 ft | 241 kts | 2° |
| 2026-05-08 03:00 | -29.09915 | -51.25476 | 8238 ft | 272 kts | 34° |
| 2026-05-08 03:00 | -29.08919 | -51.23504 | 8906 ft | 306 kts | 66° |
| 2026-05-08 03:00 | -29.08472 | -51.21088 | 9621 ft | 310 kts | 65° |
| 2026-05-08 03:00 | -29.07443 | -51.19039 | 10242 ft | 289 kts | 33° |
| 2026-05-08 03:01 | -29.05759 | -51.18013 | 10902 ft | 269 kts | 2° |
| 2026-05-08 03:01 | -29.03979 | -51.18239 | 11577 ft | 258 kts | 332° |
| 2026-05-08 03:01 | -29.02527 | -51.19460 | 11989 ft | 272 kts | 320° |
| 2026-05-08 03:01 | -29.00819 | -51.20595 | 12149 ft | 297 kts | 343° |
| 2026-05-08 03:02 | -28.98715 | -51.20559 | 12529 ft | 322 kts | 11° |
| 2026-05-08 03:02 | -28.96706 | -51.19251 | 13108 ft | 345 kts | 34° |
| 2026-05-08 03:02 | -28.95045 | -51.17200 | 13753 ft | 357 kts | 44° |
| 2026-05-08 03:02 | -28.93539 | -51.14920 | 14410 ft | 359 kts | 45° |
| 2026-05-08 03:03 | -28.92042 | -51.12615 | 14987 ft | 363 kts | 45° |
| 2026-05-08 03:03 | -28.90496 | -51.10325 | 15549 ft | 363 kts | 41° |
| 2026-05-08 03:03 | -28.88782 | -51.08223 | 16163 ft | 361 kts | 37° |
| 2026-05-08 03:03 | -28.86975 | -51.06277 | 16712 ft | 361 kts | 34° |
| 2026-05-08 03:04 | -28.85092 | -51.04367 | 17337 ft | 365 kts | 33° |
| 2026-05-08 03:04 | -28.83181 | -51.02445 | 18005 ft | 366 kts | 33° |
| 2026-05-08 03:04 | -28.81204 | -51.00665 | 18501 ft | 360 kts | 25° |
| 2026-05-08 03:04 | -28.78990 | -50.99398 | 18940 ft | 354 kts | 13° |
| 2026-05-08 03:05 | -28.76639 | -50.98682 | 19410 ft | 348 kts | 5° |
| 2026-05-08 03:05 | -28.74250 | -50.98129 | 19834 ft | 352 kts | 5° |
| 2026-05-08 03:05 | -28.71833 | -50.97573 | 20299 ft | 354 kts | 5° |
| 2026-05-08 03:05 | -28.69410 | -50.97018 | 20734 ft | 357 kts | 5° |
| 2026-05-08 03:06 | -28.66969 | -50.96456 | 21234 ft | 359 kts | 5° |
| 2026-05-08 03:06 | -28.64519 | -50.95892 | 21724 ft | 360 kts | 5° |
| 2026-05-08 03:06 | -28.62051 | -50.95326 | 22190 ft | 362 kts | 5° |
| 2026-05-08 03:06 | -28.59566 | -50.94755 | 22653 ft | 364 kts | 5° |
| 2026-05-08 03:07 | -28.57103 | -50.94192 | 23112 ft | 367 kts | 5° |
| 2026-05-08 03:07 | -28.54601 | -50.93620 | 23520 ft | 369 kts | 4° |
| 2026-05-08 03:07 | -28.52071 | -50.93044 | 23851 ft | 372 kts | 4° |
| 2026-05-08 03:07 | -28.49519 | -50.92461 | 24174 ft | 375 kts | 4° |
| 2026-05-08 03:08 | -28.46949 | -50.91872 | 24501 ft | 379 kts | 4° |
| 2026-05-08 03:08 | -28.44349 | -50.91274 | 24828 ft | 382 kts | 4° |
| 2026-05-08 03:08 | -28.41733 | -50.90673 | 25150 ft | 385 kts | 4° |
| 2026-05-08 03:08 | -28.39103 | -50.90070 | 25465 ft | 388 kts | 4° |
| 2026-05-08 03:09 | -28.36442 | -50.89460 | 25783 ft | 391 kts | 4° |
| 2026-05-08 03:09 | -28.33763 | -50.88847 | 26097 ft | 394 kts | 4° |
| 2026-05-08 03:09 | -28.31061 | -50.88226 | 26406 ft | 397 kts | 4° |
| 2026-05-08 03:09 | -28.28379 | -50.87614 | 26703 ft | 400 kts | 4° |
| 2026-05-08 03:10 | -28.25636 | -50.86991 | 26946 ft | 404 kts | 4° |
| 2026-05-08 03:10 | -28.22861 | -50.86359 | 27230 ft | 408 kts | 4° |
| 2026-05-08 03:10 | -28.20063 | -50.85722 | 27529 ft | 411 kts | 4° |
| 2026-05-08 03:10 | -28.17249 | -50.85081 | 27827 ft | 414 kts | 4° |
| 2026-05-08 03:11 | -28.14409 | -50.84434 | 28145 ft | 417 kts | 4° |
| 2026-05-08 03:11 | -28.11553 | -50.83783 | 28452 ft | 420 kts | 4° |
| 2026-05-08 03:11 | -28.08680 | -50.83130 | 28745 ft | 423 kts | 4° |
| 2026-05-08 03:11 | -28.05827 | -50.82433 | 29027 ft | 429 kts | 8° |
| 2026-05-08 03:12 | -28.02986 | -50.81216 | 29281 ft | 443 kts | 19° |
| 2026-05-08 03:12 | -28.00243 | -50.79580 | 29479 ft | 447 kts | 20° |
| 2026-05-08 03:12 | -27.97483 | -50.77924 | 29706 ft | 449 kts | 20° |
| 2026-05-08 03:12 | -27.94709 | -50.76263 | 29952 ft | 452 kts | 20° |
| 2026-05-08 03:13 | -27.91926 | -50.74597 | 30166 ft | 454 kts | 20° |
| 2026-05-08 03:13 | -27.89123 | -50.72921 | 30382 ft | 456 kts | 20° |
| 2026-05-08 03:13 | -27.86339 | -50.71255 | 30594 ft | 458 kts | 20° |
| 2026-05-08 03:13 | -27.83510 | -50.69563 | 30787 ft | 461 kts | 20° |
| 2026-05-08 03:14 | -27.80676 | -50.67864 | 31078 ft | 461 kts | 21° |
| 2026-05-08 03:14 | -27.77841 | -50.66165 | 31390 ft | 460 kts | 21° |
| 2026-05-08 03:14 | -27.75001 | -50.64471 | 31665 ft | 460 kts | 21° |
| 2026-05-08 03:14 | -27.72167 | -50.62785 | 31907 ft | 462 kts | 21° |
| 2026-05-08 03:15 | -27.69326 | -50.61098 | 32173 ft | 462 kts | 21° |
| 2026-05-08 03:15 | -27.66477 | -50.59408 | 32439 ft | 463 kts | 21° |
| 2026-05-08 03:15 | -27.63625 | -50.57717 | 32699 ft | 463 kts | 21° |
| 2026-05-08 03:15 | -27.60760 | -50.56018 | 32852 ft | 464 kts | 21° |
| 2026-05-08 03:16 | -27.57928 | -50.54331 | 32879 ft | 457 kts | 21° |
| 2026-05-08 03:16 | -27.52343 | -50.51010 | 32882 ft | 453 kts | 21° |
| 2026-05-08 03:17 | -27.46804 | -50.47724 | 32884 ft | 452 kts | 21° |
| 2026-05-08 03:17 | -27.41233 | -50.44418 | 32880 ft | 453 kts | 21° |
| 2026-05-08 03:18 | -27.35750 | -50.41128 | 32871 ft | 453 kts | 21° |
| 2026-05-08 03:18 | -27.30188 | -50.37787 | 32873 ft | 453 kts | 21° |
| 2026-05-08 03:19 | -27.24617 | -50.34447 | 32874 ft | 453 kts | 21° |
| 2026-05-08 03:19 | -27.19044 | -50.31114 | 32875 ft | 453 kts | 21° |
| 2026-05-08 03:20 | -27.13505 | -50.27836 | 32860 ft | 453 kts | 20° |
| 2026-05-08 03:20 | -27.07907 | -50.24544 | 32874 ft | 453 kts | 20° |
| 2026-05-08 03:21 | -27.02317 | -50.21267 | 32882 ft | 453 kts | 20° |
| 2026-05-08 03:21 | -26.96737 | -50.17985 | 32870 ft | 453 kts | 20° |
| 2026-05-08 03:22 | -26.91142 | -50.14688 | 32878 ft | 453 kts | 20° |
| 2026-05-08 03:22 | -26.85557 | -50.11398 | 32858 ft | 453 kts | 20° |
| 2026-05-08 03:23 | -26.80053 | -50.08165 | 32874 ft | 453 kts | 20° |
| 2026-05-08 03:23 | -26.74463 | -50.04903 | 32885 ft | 452 kts | 20° |
| 2026-05-08 03:24 | -26.68882 | -50.01647 | 32884 ft | 452 kts | 20° |
| 2026-05-08 03:24 | -26.63296 | -49.98378 | 32894 ft | 452 kts | 20° |
| 2026-05-08 03:25 | -26.57718 | -49.95113 | 32887 ft | 452 kts | 20° |
| 2026-05-08 03:25 | -26.52142 | -49.91859 | 32871 ft | 452 kts | 20° |
| 2026-05-08 03:26 | -26.46587 | -49.88629 | 32881 ft | 453 kts | 20° |
| 2026-05-08 03:26 | -26.40990 | -49.85378 | 32895 ft | 454 kts | 20° |
| 2026-05-08 03:27 | -26.35381 | -49.82117 | 32900 ft | 454 kts | 20° |
| 2026-05-08 03:27 | -26.29770 | -49.78851 | 32915 ft | 454 kts | 20° |
| 2026-05-08 03:28 | -26.24201 | -49.75605 | 32893 ft | 454 kts | 20° |
| 2026-05-08 03:28 | -26.18583 | -49.72351 | 32895 ft | 455 kts | 20° |
| 2026-05-08 03:29 | -26.12962 | -49.69097 | 32903 ft | 455 kts | 20° |
| 2026-05-08 03:29 | -26.07343 | -49.65851 | 32910 ft | 455 kts | 20° |
| 2026-05-08 03:30 | -25.98902 | -49.60975 | 32916 ft | 455 kts | 20° |
| 2026-05-08 03:31 | -25.87691 | -49.54497 | 32917 ft | 455 kts | 20° |
| 2026-05-08 03:32 | -25.79241 | -49.49636 | 32912 ft | 455 kts | 20° |
| 2026-05-08 03:32 | -25.73606 | -49.46392 | 32940 ft | 456 kts | 20° |
| 2026-05-08 03:33 | -25.67973 | -49.43160 | 32950 ft | 456 kts | 19° |
| 2026-05-08 03:33 | -25.62366 | -49.39937 | 32985 ft | 456 kts | 20° |
| 2026-05-08 03:34 | -25.56715 | -49.36700 | 32997 ft | 456 kts | 19° |
| 2026-05-08 03:34 | -25.51077 | -49.33473 | 32945 ft | 455 kts | 19° |
| 2026-05-08 03:35 | -25.45470 | -49.30272 | 32934 ft | 455 kts | 20° |
| 2026-05-08 03:35 | -25.39836 | -49.27070 | 32916 ft | 454 kts | 20° |
| 2026-05-08 03:36 | -25.34218 | -49.23861 | 32925 ft | 454 kts | 20° |
| 2026-05-08 03:36 | -25.28593 | -49.20654 | 32929 ft | 455 kts | 20° |
| 2026-05-08 03:37 | -25.22967 | -49.17448 | 32932 ft | 455 kts | 20° |
| 2026-05-08 03:37 | -25.17343 | -49.14244 | 32934 ft | 455 kts | 20° |
| 2026-05-08 03:38 | -25.11719 | -49.11039 | 32936 ft | 455 kts | 20° |
| 2026-05-08 03:38 | -25.06091 | -49.07828 | 32912 ft | 456 kts | 20° |
| 2026-05-08 03:39 | -25.00440 | -49.04613 | 32916 ft | 457 kts | 20° |
| 2026-05-08 03:39 | -24.94813 | -49.01413 | 32924 ft | 458 kts | 20° |
| 2026-05-08 03:40 | -24.89144 | -48.98194 | 32927 ft | 457 kts | 20° |
| 2026-05-08 03:40 | -24.83475 | -48.94977 | 32935 ft | 458 kts | 20° |
| 2026-05-08 03:41 | -24.77809 | -48.91768 | 32926 ft | 458 kts | 20° |
| 2026-05-08 03:41 | -24.72169 | -48.88587 | 32945 ft | 458 kts | 20° |
| 2026-05-08 03:42 | -24.66493 | -48.85396 | 32932 ft | 458 kts | 20° |
| 2026-05-08 03:42 | -24.60801 | -48.82203 | 32952 ft | 458 kts | 20° |
| 2026-05-08 03:43 | -24.55120 | -48.79019 | 32956 ft | 458 kts | 20° |
| 2026-05-08 03:43 | -24.49519 | -48.75644 | 32949 ft | 462 kts | 25° |
| 2026-05-08 03:44 | -24.44104 | -48.71903 | 32946 ft | 462 kts | 25° |
| 2026-05-08 03:44 | -24.38653 | -48.68140 | 32950 ft | 462 kts | 25° |
| 2026-05-08 03:45 | -24.33202 | -48.64388 | 32947 ft | 462 kts | 25° |
| 2026-05-08 03:45 | -24.28669 | -48.61278 | 32960 ft | 462 kts | 25° |
| 2026-05-08 03:46 | -24.22327 | -48.56926 | 32956 ft | 462 kts | 26° |
| 2026-05-08 03:46 | -24.16895 | -48.53193 | 32981 ft | 459 kts | 26° |
| 2026-05-08 03:47 | -24.12400 | -48.50115 | 32594 ft | 457 kts | 26° |
| 2026-05-08 03:47 | -24.09706 | -48.48276 | 31966 ft | 454 kts | 26° |
| 2026-05-08 03:47 | -24.07030 | -48.46450 | 31411 ft | 451 kts | 26° |
| 2026-05-08 03:47 | -24.03516 | -48.44049 | 30653 ft | 447 kts | 26° |
| 2026-05-08 03:48 | -24.01736 | -48.42831 | 30274 ft | 445 kts | 27° |
| 2026-05-08 03:48 | -23.99129 | -48.41044 | 29677 ft | 443 kts | 27° |
| 2026-05-08 03:48 | -23.96529 | -48.39263 | 29128 ft | 438 kts | 27° |
| 2026-05-08 03:48 | -23.93953 | -48.37499 | 28585 ft | 434 kts | 27° |
| 2026-05-08 03:49 | -23.91438 | -48.35778 | 28061 ft | 430 kts | 27° |
| 2026-05-08 03:49 | -23.88911 | -48.34053 | 27541 ft | 425 kts | 27° |
| 2026-05-08 03:49 | -23.86424 | -48.32339 | 27034 ft | 422 kts | 30° |
| 2026-05-08 03:49 | -23.84169 | -48.30264 | 26527 ft | 425 kts | 42° |
| 2026-05-08 03:50 | -23.82350 | -48.27707 | 26017 ft | 428 kts | 55° |
| 2026-05-08 03:50 | -23.80861 | -48.24893 | 25508 ft | 426 kts | 56° |
| 2026-05-08 03:50 | -23.79391 | -48.22101 | 24998 ft | 423 kts | 56° |
| 2026-05-08 03:50 | -23.77917 | -48.19325 | 24491 ft | 421 kts | 56° |
| 2026-05-08 03:51 | -23.76444 | -48.16569 | 23973 ft | 419 kts | 56° |
| 2026-05-08 03:51 | -23.74997 | -48.13863 | 23447 ft | 418 kts | 56° |
| 2026-05-08 03:51 | -23.73535 | -48.11122 | 22895 ft | 416 kts | 56° |
| 2026-05-08 03:51 | -23.72088 | -48.08404 | 22357 ft | 412 kts | 56° |
| 2026-05-08 03:52 | -23.70652 | -48.05710 | 21844 ft | 409 kts | 56° |
| 2026-05-08 03:52 | -23.69217 | -48.03028 | 21312 ft | 407 kts | 56° |
| 2026-05-08 03:52 | -23.67789 | -48.00368 | 20774 ft | 405 kts | 56° |
| 2026-05-08 03:52 | -23.66368 | -47.97719 | 20322 ft | 401 kts | 56° |
| 2026-05-08 03:53 | -23.64968 | -47.95100 | 19823 ft | 399 kts | 56° |
| 2026-05-08 03:53 | -23.63580 | -47.92505 | 19472 ft | 393 kts | 56° |
| 2026-05-08 03:53 | -23.62223 | -47.89970 | 19024 ft | 390 kts | 56° |
| 2026-05-08 03:53 | -23.60861 | -47.87426 | 18607 ft | 387 kts | 56° |
| 2026-05-08 03:54 | -23.59510 | -47.84898 | 18201 ft | 384 kts | 56° |
| 2026-05-08 03:54 | -23.58168 | -47.82388 | 17726 ft | 380 kts | 56° |
| 2026-05-08 03:54 | -23.56837 | -47.79904 | 17239 ft | 377 kts | 56° |
| 2026-05-08 03:54 | -23.55516 | -47.77447 | 16765 ft | 374 kts | 56° |
| 2026-05-08 03:55 | -23.54217 | -47.75029 | 15999 ft | 368 kts | 56° |
| 2026-05-08 03:55 | -23.52931 | -47.72634 | 15282 ft | 361 kts | 56° |
| 2026-05-08 03:55 | -23.51699 | -47.70340 | 14848 ft | 352 kts | 56° |
| 2026-05-08 03:55 | -23.50473 | -47.68062 | 14395 ft | 352 kts | 56° |
| 2026-05-08 03:56 | -23.49233 | -47.65763 | 13943 ft | 352 kts | 56° |
| 2026-05-08 03:56 | -23.47998 | -47.63476 | 13642 ft | 346 kts | 56° |
| 2026-05-08 03:56 | -23.46798 | -47.61249 | 13511 ft | 335 kts | 56° |
| 2026-05-08 03:56 | -23.45637 | -47.59093 | 13370 ft | 324 kts | 56° |
| 2026-05-08 03:57 | -23.44516 | -47.57005 | 13090 ft | 314 kts | 55° |
| 2026-05-08 03:57 | -23.43421 | -47.54968 | 12499 ft | 309 kts | 55° |
| 2026-05-08 03:57 | -23.42338 | -47.52956 | 11898 ft | 306 kts | 54° |
| 2026-05-08 03:57 | -23.41262 | -47.50961 | 11302 ft | 303 kts | 54° |
| 2026-05-08 03:58 | -23.40214 | -47.49016 | 10720 ft | 300 kts | 54° |
| 2026-05-08 03:58 | -23.39169 | -47.47075 | 10225 ft | 293 kts | 53° |
| 2026-05-08 03:58 | -23.38155 | -47.45190 | 9823 ft | 284 kts | 53° |
| 2026-05-08 03:58 | -23.37179 | -47.43370 | 9408 ft | 273 kts | 53° |
| 2026-05-08 03:59 | -23.36233 | -47.41614 | 9034 ft | 263 kts | 53° |
| 2026-05-08 03:59 | -23.35298 | -47.39887 | 8862 ft | 274 kts | 53° |
| 2026-05-08 03:59 | -23.34299 | -47.38061 | 8799 ft | 283 kts | 54° |
| 2026-05-08 03:59 | -23.33291 | -47.36209 | 8721 ft | 285 kts | 54° |
| 2026-05-08 04:00 | -23.32282 | -47.34343 | 8620 ft | 285 kts | 54° |
| 2026-05-08 04:00 | -23.31280 | -47.32484 | 8532 ft | 284 kts | 54° |
| 2026-05-08 04:00 | -23.30281 | -47.30634 | 8440 ft | 284 kts | 54° |
| 2026-05-08 04:00 | -23.29291 | -47.28800 | 8344 ft | 284 kts | 53° |
| 2026-05-08 04:01 | -23.28332 | -47.27028 | 8256 ft | 283 kts | 53° |
| 2026-05-08 04:01 | -23.27330 | -47.25184 | 8155 ft | 282 kts | 54° |
| 2026-05-08 04:01 | -23.26335 | -47.23345 | 8054 ft | 282 kts | 54° |
| 2026-05-08 04:01 | -23.25342 | -47.21508 | 7934 ft | 281 kts | 54° |
| 2026-05-08 04:02 | -23.24352 | -47.19679 | 7750 ft | 280 kts | 54° |
| 2026-05-08 04:02 | -23.23364 | -47.17857 | 7542 ft | 279 kts | 54° |
| 2026-05-08 04:02 | -23.22377 | -47.16035 | 7333 ft | 279 kts | 54° |
| 2026-05-08 04:02 | -23.21417 | -47.14261 | 7152 ft | 271 kts | 54° |
| 2026-05-08 04:03 | -23.20473 | -47.12518 | 6974 ft | 263 kts | 53° |
| 2026-05-08 04:03 | -23.18671 | -47.09203 | 6669 ft | 245 kts | 53° |
| 2026-05-08 04:03 | -23.17785 | -47.07664 | 6523 ft | 234 kts | 43° |
| 2026-05-08 04:04 | -23.16612 | -47.06509 | 6225 ft | 225 kts | 32° |
| 2026-05-08 04:04 | -23.15391 | -47.05475 | 5906 ft | 219 kts | 32° |
| 2026-05-08 04:04 | -23.14204 | -47.04470 | 5601 ft | 213 kts | 32° |
| 2026-05-08 04:04 | -23.13026 | -47.03572 | 5305 ft | 199 kts | 21° |
| 2026-05-08 04:05 | -23.11786 | -47.03074 | 5066 ft | 181 kts | 9° |
| 2026-05-08 04:05 | -23.10593 | -47.02941 | 4817 ft | 166 kts | 357° |
| 2026-05-08 04:05 | -23.09513 | -47.03093 | 4596 ft | 153 kts | 347° |
| 2026-05-08 04:05 | -23.08532 | -47.03474 | 4389 ft | 147 kts | 336° |
| 2026-05-08 04:06 | -23.07663 | -47.04052 | 4192 ft | 148 kts | 327° |
| 2026-05-08 04:06 | -23.06919 | -47.04814 | 3964 ft | 147 kts | 316° |
| 2026-05-08 04:06 | -23.06297 | -47.05686 | 3772 ft | 144 kts | 314° |
| 2026-05-08 04:06 | -23.05685 | -47.06547 | 3575 ft | 144 kts | 314° |
| 2026-05-08 04:07 | -23.05075 | -47.07401 | 3389 ft | 144 kts | 313° |
| 2026-05-08 04:07 | -23.04457 | -47.08262 | 3188 ft | 146 kts | 313° |
| 2026-05-08 04:07 | -23.03830 | -47.09145 | 2964 ft | 148 kts | 311° |
| 2026-05-08 04:07 | -23.03207 | -47.10046 | 2761 ft | 150 kts | 310° |
| 2026-05-08 04:08 | -23.02569 | -47.10935 | 2540 ft | 148 kts | 310° |
| 2026-05-08 04:08 | -23.01938 | -47.11811 | 2323 ft | 147 kts | 313° |
| 2026-05-08 04:08 | -23.01312 | -47.12646 | 2167 ft | 140 kts | 309° |
| 2026-05-08 04:08 | -23.00799 | -47.13376 | 2164 ft | 97 kts | 308° |
| 2026-05-08 04:09 | -23.00487 | -47.13801 | 2160 ft | 53 kts | 308° |
| 2026-05-08 04:09 | -23.00276 | -47.14099 | 2161 ft | 46 kts | 307° |
| 2026-05-08 04:09 | -23.00089 | -47.14360 | 2168 ft | 42 kts | 309° |
| 2026-05-08 04:09 | -22.99960 | -47.14553 | 2161 ft | 8 kts | 273° |
| 2026-05-08 04:10 | -22.99975 | -47.14598 | 2167 ft | 5 kts | 251° |
| 2026-05-08 04:10 | -22.99992 | -47.14652 | 2162 ft | 15 kts | 251° |
| 2026-05-08 04:10 | -23.00085 | -47.14729 | 2167 ft | 16 kts | 201° |
| 2026-05-08 04:10 | -23.00173 | -47.14711 | 2164 ft | 11 kts | 135° |